createdAt,value
2017-08-13T00:02:01.153Z,1.97
2017-08-13T00:04:27.847Z,2.20
2017-08-13T00:06:53.816Z,2.10
2017-08-13T00:09:19.758Z,2.03
2017-08-13T00:11:45.780Z,1.80
2017-08-13T00:14:11.753Z,1.50
2017-08-13T00:16:37.700Z,2.13
2017-08-13T00:19:03.680Z,2.00
2017-08-13T00:21:30.367Z,1.60
2017-08-13T00:23:56.317Z,1.90
2017-08-13T00:26:23.020Z,1.93
2017-08-13T00:28:48.969Z,1.87
2017-08-13T00:31:14.942Z,1.73
2017-08-13T00:33:40.881Z,2.00
2017-08-13T00:36:06.862Z,2.07
2017-08-13T00:38:32.812Z,1.70
2017-08-13T00:40:58.773Z,2.10
2017-08-13T00:43:24.724Z,1.93
2017-08-13T00:45:50.665Z,2.40
2017-08-13T00:48:16.648Z,1.70
2017-08-13T00:50:42.580Z,2.37
2017-08-13T00:53:08.517Z,1.90
2017-08-13T00:55:34.476Z,2.40
2017-08-13T00:58:00.433Z,2.30
2017-08-13T01:00:26.400Z,2.50
2017-08-13T01:02:52.381Z,2.37
2017-08-13T01:05:18.329Z,2.27
2017-08-13T01:07:44.263Z,2.10
2017-08-13T01:10:10.237Z,2.30
2017-08-13T01:12:36.212Z,2.10
2017-08-13T01:15:02.197Z,2.10
2017-08-13T01:17:28.910Z,2.17
2017-08-13T01:19:54.894Z,2.80
2017-08-13T01:22:20.877Z,2.00
2017-08-13T01:24:46.821Z,2.60
2017-08-13T01:27:12.789Z,2.80
2017-08-13T01:29:38.761Z,1.83
2017-08-13T01:32:05.440Z,2.63
2017-08-13T01:34:31.414Z,2.70
2017-08-13T01:36:57.359Z,2.47
2017-08-13T01:39:23.298Z,2.33
2017-08-13T01:41:49.284Z,2.37
2017-08-13T01:44:15.217Z,2.93
2017-08-13T01:46:41.178Z,2.57
2017-08-13T01:49:07.165Z,2.27
2017-08-13T01:51:33.102Z,2.67
2017-08-13T01:53:59.038Z,2.70
2017-08-13T01:56:25.005Z,1.90
2017-08-13T01:58:50.945Z,2.00
2017-08-13T02:01:16.913Z,1.80
2017-08-13T02:03:42.874Z,2.30
2017-08-13T02:06:08.850Z,1.87
2017-08-13T02:08:34.781Z,2.17
2017-08-13T02:11:00.712Z,1.83
2017-08-13T02:13:27.420Z,2.27
2017-08-13T02:15:53.364Z,2.37
2017-08-13T02:18:19.297Z,2.20
2017-08-13T02:20:45.265Z,1.80
2017-08-13T02:23:11.196Z,2.30
2017-08-13T02:25:37.177Z,2.20
2017-08-13T02:28:03.108Z,2.00
2017-08-13T02:30:29.044Z,2.00
2017-08-13T02:32:55.000Z,2.27
2017-08-13T02:35:21.721Z,2.30
2017-08-13T02:37:47.656Z,2.03
2017-08-13T02:40:13.673Z,2.07
2017-08-13T02:42:39.613Z,2.47
2017-08-13T02:45:05.564Z,2.10
2017-08-13T02:47:31.526Z,2.10
2017-08-13T02:49:57.454Z,1.80
2017-08-13T02:52:23.414Z,1.70
2017-08-13T02:54:49.357Z,2.10
2017-08-13T02:57:15.335Z,2.07
2017-08-13T02:59:41.268Z,2.67
2017-08-13T03:02:07.221Z,1.80
2017-08-13T03:04:33.208Z,2.20
2017-08-13T03:06:59.157Z,2.60
2017-08-13T03:09:25.101Z,2.30
2017-08-13T03:11:51.081Z,2.40
2017-08-13T03:14:17.044Z,2.47
2017-08-13T03:16:42.977Z,2.40
2017-08-13T03:19:08.909Z,2.97
2017-08-13T03:21:34.889Z,1.90
2017-08-13T03:24:00.961Z,2.07
2017-08-13T03:26:27.649Z,2.63
2017-08-13T03:28:53.597Z,2.50
2017-08-13T03:31:19.587Z,2.17
2017-08-13T03:33:45.524Z,2.47
2017-08-13T03:36:11.537Z,2.30
2017-08-13T03:38:37.467Z,2.50
2017-08-13T03:41:03.405Z,2.37
2017-08-13T03:43:29.391Z,2.23
2017-08-13T03:45:55.336Z,2.17
2017-08-13T03:48:22.029Z,2.57
2017-08-13T03:50:47.985Z,2.27
2017-08-13T03:53:14.697Z,2.30
2017-08-13T03:55:40.633Z,1.80
2017-08-13T03:58:06.600Z,2.50
2017-08-13T04:00:32.549Z,2.50
2017-08-13T04:02:58.489Z,2.10
2017-08-13T04:05:24.475Z,2.40
2017-08-13T04:07:50.494Z,2.50
2017-08-13T04:10:16.430Z,2.67
2017-08-13T04:12:42.360Z,2.67
2017-08-13T04:15:09.076Z,2.83
2017-08-13T04:17:35.009Z,2.37
2017-08-13T04:20:00.999Z,2.40
2017-08-13T04:22:26.969Z,2.47
2017-08-13T04:24:52.914Z,2.80
2017-08-13T04:27:18.908Z,2.80
2017-08-13T04:29:44.842Z,2.43
2017-08-13T04:32:10.772Z,2.33
2017-08-13T04:34:36.721Z,2.10
2017-08-13T04:37:02.660Z,2.17
2017-08-13T04:39:28.618Z,2.60
2017-08-13T04:41:55.349Z,2.33
2017-08-13T04:44:22.056Z,2.20
2017-08-13T04:46:48.025Z,1.97
2017-08-13T04:49:13.977Z,2.13
2017-08-13T04:51:39.912Z,1.97
2017-08-13T04:54:05.889Z,2.20
2017-08-13T04:56:31.824Z,2.10
2017-08-13T04:58:57.771Z,2.23
2017-08-13T05:01:23.749Z,1.70
2017-08-13T05:03:49.761Z,2.17
2017-08-13T05:06:15.713Z,1.80
2017-08-13T05:08:41.664Z,2.00
2017-08-13T05:11:07.633Z,1.70
2017-08-13T05:13:33.610Z,1.93
2017-08-13T05:15:59.544Z,1.97
2017-08-13T05:18:25.533Z,1.70
2017-08-13T05:20:52.223Z,2.27
2017-08-13T05:23:18.172Z,2.17
2017-08-13T05:25:44.916Z,2.00
2017-08-13T05:28:17.641Z,1.60
2017-08-13T05:30:43.630Z,2.00
2017-08-13T05:33:09.560Z,2.23
2017-08-13T05:35:35.523Z,1.90
2017-08-13T05:38:01.508Z,2.00
2017-08-13T05:40:27.452Z,1.97
2017-08-13T05:42:53.421Z,2.30
2017-08-13T05:45:19.405Z,2.00
2017-08-13T05:47:46.124Z,2.03
2017-08-13T05:50:12.057Z,1.97
2017-08-13T05:52:38.738Z,2.10
2017-08-13T05:55:04.716Z,1.83
2017-08-13T05:57:30.654Z,1.57
2017-08-13T05:59:56.640Z,1.47
2017-08-13T06:02:22.589Z,1.80
2017-08-13T06:04:48.569Z,2.40
2017-08-13T06:07:14.538Z,2.30
2017-08-13T06:09:40.483Z,2.00
2017-08-13T06:12:06.457Z,1.93
2017-08-13T06:14:32.420Z,2.00
2017-08-13T06:16:58.386Z,1.97
2017-08-13T06:19:24.342Z,1.80
2017-08-13T06:21:50.320Z,2.17
2017-08-13T06:24:16.301Z,1.83
2017-08-13T06:26:42.272Z,2.20
2017-08-13T06:29:08.208Z,1.83
2017-08-13T06:31:34.178Z,2.13
2017-08-13T06:34:00.116Z,1.70
2017-08-13T06:36:26.841Z,1.73
2017-08-13T06:38:52.794Z,1.50
2017-08-13T06:41:18.771Z,1.60
2017-08-13T06:43:44.720Z,1.93
2017-08-13T06:46:10.653Z,1.80
2017-08-13T06:48:36.617Z,1.77
2017-08-13T06:51:02.591Z,1.80
2017-08-13T06:53:28.565Z,1.67
2017-08-13T06:55:54.505Z,2.00
2017-08-13T06:58:20.462Z,1.90
2017-08-13T07:00:46.432Z,2.10
2017-08-13T07:03:12.388Z,2.13
2017-08-13T07:05:38.338Z,1.97
2017-08-13T07:08:04.309Z,2.10
2017-08-13T07:10:30.269Z,2.20
2017-08-13T07:12:56.252Z,2.53
2017-08-13T07:15:22.970Z,2.33
2017-08-13T07:17:48.917Z,2.37
2017-08-13T07:20:15.689Z,2.43
2017-08-13T07:22:41.628Z,2.30
2017-08-13T07:25:07.565Z,1.97
2017-08-13T07:27:33.537Z,2.40
2017-08-13T07:29:59.472Z,2.00
2017-08-13T07:32:26.198Z,1.60
2017-08-13T07:34:52.898Z,1.80
2017-08-13T07:37:18.823Z,2.00
2017-08-13T07:39:44.796Z,1.97
2017-08-13T07:42:10.728Z,2.20
2017-08-13T07:44:36.669Z,2.00
2017-08-13T07:47:02.642Z,2.00
2017-08-13T07:49:28.573Z,1.90
2017-08-13T07:51:54.553Z,1.90
2017-08-13T07:54:20.546Z,2.17
2017-08-13T07:56:46.493Z,1.90
2017-08-13T07:59:13.173Z,1.90
2017-08-13T08:01:39.149Z,2.57
2017-08-13T08:04:05.086Z,2.77
2017-08-13T08:06:31.025Z,3.50
2017-08-13T08:08:57.066Z,1.73
2017-08-13T08:11:23.038Z,3.00
2017-08-13T08:13:48.981Z,2.60
2017-08-13T08:16:14.957Z,1.97
2017-08-13T08:18:40.893Z,2.20
2017-08-13T08:21:07.613Z,2.17
2017-08-13T08:23:34.299Z,2.10
2017-08-13T08:26:00.249Z,2.63
2017-08-13T08:28:26.241Z,2.73
2017-08-13T08:30:52.182Z,2.90
2017-08-13T08:33:18.122Z,3.07
2017-08-13T08:35:44.092Z,2.63
2017-08-13T08:38:10.025Z,2.60
2017-08-13T08:40:35.980Z,2.80
2017-08-13T08:43:01.945Z,2.67
2017-08-13T08:45:27.885Z,3.10
2017-08-13T08:47:53.882Z,2.97
2017-08-13T08:50:19.821Z,3.00
2017-08-13T08:52:45.751Z,3.00
2017-08-13T08:55:11.741Z,3.20
2017-08-13T08:57:38.416Z,3.50
2017-08-13T09:00:04.352Z,3.10
2017-08-13T09:02:30.317Z,2.83
2017-08-13T09:04:56.258Z,2.70
2017-08-13T09:07:22.234Z,2.93
2017-08-13T09:09:48.168Z,2.70
2017-08-13T09:12:14.153Z,2.87
2017-08-13T09:14:40.128Z,2.57
2017-08-13T09:17:06.800Z,2.50
2017-08-13T09:19:32.765Z,2.50
2017-08-13T09:21:59.481Z,2.57
2017-08-13T09:24:25.421Z,2.03
2017-08-13T09:26:51.377Z,2.03
2017-08-13T09:29:17.349Z,1.63
2017-08-13T09:31:43.285Z,2.03
2017-08-13T09:34:09.257Z,2.70
2017-08-13T09:36:35.192Z,2.20
2017-08-13T09:39:01.133Z,2.53
2017-08-13T09:41:27.101Z,2.10
2017-08-13T09:43:53.048Z,1.80
2017-08-13T09:46:19.014Z,1.90
2017-08-13T09:48:44.944Z,1.97
2017-08-13T09:51:10.905Z,1.80
2017-08-13T09:53:36.853Z,1.90
2017-08-13T09:56:02.830Z,4.07
2017-08-13T09:58:28.852Z,2.10
2017-08-13T10:00:54.837Z,1.90
2017-08-13T10:03:20.798Z,1.67
2017-08-13T10:05:46.749Z,1.53
2017-08-13T10:08:12.724Z,1.33
2017-08-13T10:10:38.660Z,2.00
2017-08-13T10:13:04.641Z,1.20
2017-08-13T10:15:30.597Z,1.60
2017-08-13T10:17:56.568Z,1.40
2017-08-13T10:20:22.546Z,1.60
2017-08-13T10:22:48.484Z,1.60
2017-08-13T10:25:15.157Z,1.60
2017-08-13T10:27:41.124Z,1.30
2017-08-13T10:30:07.809Z,1.47
2017-08-13T10:32:33.797Z,1.70
2017-08-13T10:34:59.729Z,1.57
2017-08-13T10:37:25.665Z,1.70
2017-08-13T10:39:52.392Z,1.40
2017-08-13T10:42:19.061Z,1.40
2017-08-13T10:44:45.044Z,1.37
2017-08-13T10:47:11.749Z,1.10
2017-08-13T10:49:38.429Z,1.60
2017-08-13T10:52:04.380Z,1.33
2017-08-13T10:54:31.104Z,2.03
2017-08-13T10:56:57.053Z,1.27
2017-08-13T10:59:22.989Z,1.70
2017-08-13T11:01:48.952Z,1.80
2017-08-13T11:04:14.891Z,1.93
2017-08-13T11:06:40.870Z,1.73
2017-08-13T11:09:06.845Z,1.90
2017-08-13T11:11:32.822Z,1.97
2017-08-13T11:13:58.825Z,1.90
2017-08-13T11:16:24.806Z,2.17
2017-08-13T11:18:50.780Z,2.30
2017-08-13T11:21:16.746Z,2.20
2017-08-13T11:23:42.694Z,2.27
2017-08-13T11:26:08.665Z,2.73
2017-08-13T11:28:34.618Z,1.90
2017-08-13T11:31:00.557Z,2.40
2017-08-13T11:33:27.273Z,2.07
2017-08-13T11:35:53.274Z,2.20
2017-08-13T11:38:19.216Z,2.23
2017-08-13T11:40:45.901Z,2.30
2017-08-13T11:43:11.873Z,1.70
2017-08-13T11:45:37.808Z,1.67
2017-08-13T11:48:03.773Z,1.73
2017-08-13T11:50:29.709Z,1.57
2017-08-13T11:52:55.710Z,1.90
2017-08-13T11:55:21.665Z,1.80
2017-08-13T11:57:47.645Z,2.50
2017-08-13T12:00:13.593Z,2.70
2017-08-13T12:02:40.276Z,2.90
2017-08-13T12:05:06.273Z,2.60
2017-08-13T12:07:32.248Z,2.90
2017-08-13T12:09:58.181Z,3.40
2017-08-13T12:12:24.150Z,3.90
2017-08-13T12:14:51.241Z,3.10
2017-08-13T12:17:17.916Z,3.90
2017-08-13T12:19:43.849Z,3.50
2017-08-13T12:22:09.816Z,3.47
2017-08-13T12:24:35.773Z,3.40
2017-08-13T12:27:01.745Z,3.50
2017-08-13T12:29:27.696Z,3.47
2017-08-13T12:31:53.706Z,3.03
2017-08-13T12:34:19.641Z,3.47
2017-08-13T12:36:45.578Z,3.53
2017-08-13T12:39:11.553Z,3.43
2017-08-13T12:41:37.492Z,4.70
2017-08-13T12:44:03.437Z,3.63
2017-08-13T12:46:29.421Z,3.00
2017-08-13T12:48:55.373Z,3.83
2017-08-13T12:51:22.073Z,3.40
2017-08-13T12:53:48.024Z,3.37
2017-08-13T12:56:13.958Z,3.53
2017-08-13T12:58:40.612Z,3.63
2017-08-13T13:01:06.578Z,3.80
2017-08-13T13:03:32.513Z,3.00
2017-08-13T13:05:58.489Z,3.70
2017-08-13T13:08:24.428Z,3.27
2017-08-13T13:10:50.362Z,3.33
2017-08-13T13:13:16.337Z,3.40
2017-08-13T13:15:42.277Z,3.90
2017-08-13T13:18:08.266Z,3.50
2017-08-13T13:20:34.957Z,5.30
2017-08-13T13:23:00.897Z,4.20
2017-08-13T13:25:27.624Z,3.50
2017-08-13T13:27:54.305Z,4.00
2017-08-13T13:30:20.260Z,4.63
2017-08-13T13:32:46.970Z,4.00
2017-08-13T13:35:12.910Z,4.30
2017-08-13T13:37:38.884Z,3.10
2017-08-13T13:40:04.821Z,3.73
2017-08-13T13:42:31.549Z,3.87
2017-08-13T13:44:57.539Z,3.90
2017-08-13T13:47:23.490Z,3.90
2017-08-13T13:49:49.456Z,3.00
2017-08-13T13:52:15.389Z,3.10
2017-08-13T13:54:41.405Z,3.80
2017-08-13T13:57:07.358Z,3.10
2017-08-13T13:59:33.301Z,3.60
2017-08-13T14:02:00.037Z,3.47
2017-08-13T14:04:25.984Z,2.63
2017-08-13T14:06:51.929Z,2.50
2017-08-13T14:09:18.646Z,2.70
2017-08-13T14:11:44.576Z,2.53
2017-08-13T14:14:11.301Z,2.90
2017-08-13T14:16:37.253Z,3.07
2017-08-13T14:19:03.217Z,3.10
2017-08-13T14:21:29.197Z,3.30
2017-08-13T14:23:55.195Z,2.77
2017-08-13T14:26:21.141Z,2.80
2017-08-13T14:28:47.113Z,2.50
2017-08-13T14:31:13.125Z,2.80
2017-08-13T14:33:39.097Z,2.77
2017-08-13T14:36:05.037Z,3.00
2017-08-13T14:38:31.076Z,3.20
2017-08-13T14:40:57.025Z,3.80
2017-08-13T14:43:22.976Z,3.20
2017-08-13T14:45:48.956Z,2.97
2017-08-13T14:48:14.893Z,3.10
2017-08-13T14:50:40.848Z,2.93
2017-08-13T14:53:07.561Z,3.30
2017-08-13T14:55:34.233Z,2.77
2017-08-13T14:58:00.173Z,3.33
2017-08-13T15:00:26.933Z,2.80
2017-08-13T15:02:53.698Z,3.73
2017-08-13T15:05:19.647Z,3.40
2017-08-13T15:07:45.584Z,2.97
2017-08-13T15:10:11.545Z,3.10
2017-08-13T15:12:37.478Z,2.90
2017-08-13T15:15:05.371Z,3.70
2017-08-13T15:17:31.521Z,3.40
2017-08-13T15:19:57.464Z,3.30
2017-08-13T15:22:24.141Z,3.00
2017-08-13T15:24:50.143Z,2.80
2017-08-13T15:27:16.085Z,2.70
2017-08-13T15:29:42.085Z,3.07
2017-08-13T15:32:08.012Z,2.83
2017-08-13T15:34:34.709Z,3.00
2017-08-13T15:37:00.685Z,3.07
2017-08-13T15:39:26.624Z,3.03
2017-08-13T15:41:52.556Z,2.97
2017-08-13T15:44:18.527Z,3.23
2017-08-13T15:46:44.469Z,3.20
2017-08-13T15:49:10.448Z,2.73
2017-08-13T15:51:36.428Z,2.57
2017-08-13T15:54:02.365Z,2.87
2017-08-13T15:56:28.300Z,2.77
2017-08-13T15:58:54.265Z,2.60
2017-08-13T16:01:20.213Z,2.73
2017-08-13T16:03:46.185Z,3.07
2017-08-13T16:06:12.146Z,2.70
2017-08-13T16:08:38.096Z,3.10
2017-08-13T16:11:04.093Z,2.60
2017-08-13T16:13:30.790Z,3.30
2017-08-13T16:15:56.725Z,2.40
2017-08-13T16:18:23.445Z,3.13
2017-08-13T16:20:49.394Z,2.80
2017-08-13T16:23:15.336Z,2.90
2017-08-13T16:25:41.336Z,2.80
2017-08-13T16:28:07.324Z,2.67
2017-08-13T16:30:33.269Z,2.40
2017-08-13T16:32:59.290Z,2.67
2017-08-13T16:35:26.042Z,3.00
2017-08-13T16:37:51.983Z,2.50
2017-08-13T16:40:17.937Z,2.43
2017-08-13T16:42:43.897Z,2.70
2017-08-13T16:45:09.840Z,2.40
2017-08-13T16:47:35.830Z,3.23
2017-08-13T16:50:02.512Z,3.17
2017-08-13T16:52:28.468Z,2.67
2017-08-13T16:54:55.189Z,2.70
2017-08-13T16:57:21.897Z,2.97
2017-08-13T16:59:47.897Z,2.43
2017-08-13T17:02:13.889Z,3.10
2017-08-13T17:04:39.851Z,3.33
2017-08-13T17:07:05.842Z,3.03
2017-08-13T17:09:32.597Z,2.83
2017-08-13T17:11:58.695Z,2.23
2017-08-13T17:14:25.390Z,2.87
2017-08-13T17:16:51.337Z,2.80
2017-08-13T17:19:17.309Z,3.27
2017-08-13T17:21:43.249Z,3.60
2017-08-13T17:24:09.238Z,2.70
2017-08-13T17:26:35.941Z,3.13
2017-08-13T17:29:01.931Z,2.90
2017-08-13T17:31:27.873Z,3.20
2017-08-13T17:33:53.812Z,3.20
2017-08-13T17:36:19.813Z,2.50
2017-08-13T17:38:45.753Z,2.60
2017-08-13T17:41:11.734Z,2.50
2017-08-13T17:43:37.674Z,2.87
2017-08-13T17:46:03.666Z,2.70
2017-08-13T17:48:29.624Z,2.50
2017-08-13T17:50:55.563Z,2.50
2017-08-13T17:53:21.552Z,3.00
2017-08-13T17:55:48.237Z,2.63
2017-08-13T17:58:14.173Z,2.17
2017-08-13T18:00:40.133Z,2.53
2017-08-13T18:03:06.065Z,2.60
2017-08-13T18:05:32.050Z,3.40
2017-08-13T18:07:57.993Z,2.80
2017-08-13T18:10:23.941Z,2.23
2017-08-13T18:12:49.917Z,2.83
2017-08-13T18:15:15.865Z,2.90
2017-08-13T18:17:41.833Z,5.93
2017-08-13T18:20:07.809Z,5.07
2017-08-13T18:22:33.805Z,4.03
2017-08-13T18:24:59.762Z,3.90
2017-08-13T18:27:25.743Z,4.20
2017-08-13T18:29:51.725Z,3.97
2017-08-13T18:32:17.668Z,3.50
2017-08-13T18:34:43.621Z,3.37
2017-08-13T18:37:10.333Z,3.63
2017-08-13T18:39:37.152Z,3.70
2017-08-13T18:42:03.890Z,4.70
2017-08-13T18:44:30.668Z,3.80
2017-08-13T18:46:56.606Z,4.13
2017-08-13T18:49:22.556Z,4.03
2017-08-13T18:51:48.556Z,5.40
2017-08-13T18:54:14.541Z,5.60
2017-08-13T18:56:41.216Z,4.83
2017-08-13T18:59:07.153Z,4.97
2017-08-13T19:01:33.253Z,4.90
2017-08-13T19:03:59.206Z,4.80
2017-08-13T19:06:25.177Z,4.70
2017-08-13T19:08:51.157Z,4.73
2017-08-13T19:11:17.175Z,4.50
2017-08-13T19:13:43.145Z,4.33
2017-08-13T19:16:09.129Z,4.60
2017-08-13T19:18:35.101Z,5.43
2017-08-13T19:21:01.105Z,5.50
2017-08-13T19:23:27.153Z,5.50
2017-08-13T19:25:53.091Z,5.10
2017-08-13T19:28:19.025Z,5.37
2017-08-13T19:30:44.989Z,4.90
2017-08-13T19:33:10.968Z,4.23
2017-08-13T19:35:36.909Z,5.40
2017-08-13T19:38:03.597Z,4.70
2017-08-13T19:40:29.593Z,5.47
2017-08-13T19:42:55.530Z,5.00
2017-08-13T19:45:21.513Z,5.87
2017-08-13T19:47:47.457Z,5.67
2017-08-13T19:50:13.393Z,5.40
2017-08-13T19:52:39.357Z,5.30
2017-08-13T19:55:05.301Z,5.60
2017-08-13T19:57:31.265Z,5.67
2017-08-13T19:59:57.305Z,6.43
2017-08-13T20:02:23.985Z,6.90
2017-08-13T20:04:49.925Z,7.10
2017-08-13T20:07:15.933Z,6.00
2017-08-13T20:09:41.874Z,7.00
2017-08-13T20:12:07.811Z,6.37
2017-08-13T20:14:33.809Z,7.27
2017-08-13T20:16:59.769Z,6.80
2017-08-13T20:19:25.714Z,7.17
2017-08-13T20:21:51.733Z,6.83
2017-08-13T20:24:17.673Z,5.77
2017-08-13T20:26:43.652Z,6.83
2017-08-13T20:29:09.649Z,6.80
2017-08-13T20:31:35.581Z,6.47
2017-08-13T20:34:01.573Z,5.73
2017-08-13T20:36:27.547Z,5.77
2017-08-13T20:38:54.229Z,5.60
2017-08-13T20:41:20.216Z,5.57
2017-08-13T20:43:46.153Z,5.20
2017-08-13T20:46:12.132Z,5.63
2017-08-13T20:48:38.091Z,5.17
2017-08-13T20:51:04.045Z,5.17
2017-08-13T20:53:30.065Z,6.07
2017-08-13T20:55:56.001Z,6.10
2017-08-13T20:58:21.937Z,6.13
2017-08-13T21:00:48.685Z,6.30
2017-08-13T21:03:14.621Z,5.53
2017-08-13T21:05:40.588Z,7.07
2017-08-13T21:08:06.538Z,6.27
2017-08-13T21:10:32.517Z,7.30
2017-08-13T21:12:58.452Z,6.30
2017-08-13T21:15:24.454Z,6.37
2017-08-13T21:17:50.429Z,6.60
2017-08-13T21:20:16.401Z,5.67
2017-08-13T21:22:42.338Z,4.93
2017-08-13T21:25:09.037Z,5.30
2017-08-13T21:27:35.025Z,6.13
2017-08-13T21:30:00.974Z,6.20
2017-08-13T21:32:27.657Z,5.77
2017-08-13T21:34:53.629Z,5.80
2017-08-13T21:37:19.560Z,5.43
2017-08-13T21:39:45.528Z,5.60
2017-08-13T21:42:11.464Z,5.63
2017-08-13T21:44:37.440Z,6.40
2017-08-13T21:47:04.125Z,5.77
2017-08-13T21:49:30.181Z,5.33
2017-08-13T21:51:56.121Z,5.20
2017-08-13T21:54:22.066Z,5.60
2017-08-13T21:56:48.028Z,4.87
2017-08-13T21:59:14.001Z,4.67
2017-08-13T22:01:40.712Z,5.00
2017-08-13T22:04:06.649Z,6.07
2017-08-13T22:06:33.421Z,4.67
2017-08-13T22:08:59.421Z,5.10
2017-08-13T22:11:25.392Z,6.13
2017-08-13T22:13:51.345Z,5.73
2017-08-13T22:16:17.282Z,6.30
2017-08-13T22:18:43.302Z,6.00
2017-08-13T22:21:09.983Z,5.00
2017-08-13T22:23:35.925Z,4.93
2017-08-13T22:26:01.909Z,6.00
2017-08-13T22:28:27.842Z,5.77
2017-08-13T22:30:53.848Z,5.33
2017-08-13T22:33:19.788Z,5.93
2017-08-13T22:35:45.734Z,5.10
2017-08-13T22:38:11.697Z,4.97
2017-08-13T22:40:38.373Z,5.63
2017-08-13T22:43:04.361Z,5.20
2017-08-13T22:45:30.308Z,5.40
2017-08-13T22:47:56.244Z,5.17
2017-08-13T22:50:22.959Z,5.73
2017-08-13T22:52:48.944Z,5.40
2017-08-13T22:55:14.933Z,5.87
2017-08-13T22:57:40.873Z,5.70
2017-08-13T23:00:06.814Z,5.40
2017-08-13T23:02:32.791Z,6.30
2017-08-13T23:04:58.734Z,5.30
2017-08-13T23:07:24.733Z,6.00
2017-08-13T23:09:51.422Z,5.50
2017-08-13T23:12:17.372Z,6.30
2017-08-13T23:14:43.402Z,6.27
2017-08-13T23:17:11.425Z,5.70
2017-08-13T23:19:37.360Z,6.37
2017-08-13T23:22:03.342Z,6.27
2017-08-13T23:24:29.318Z,7.07
2017-08-13T23:26:55.305Z,6.50
2017-08-13T23:29:21.291Z,6.57
2017-08-13T23:31:47.245Z,6.30
2017-08-13T23:34:13.219Z,6.30
2017-08-13T23:36:39.156Z,6.40
2017-08-13T23:39:05.094Z,7.90
2017-08-13T23:41:31.826Z,6.93
2017-08-13T23:43:57.768Z,6.73
2017-08-13T23:46:23.745Z,7.20
2017-08-13T23:48:49.685Z,7.90
2017-08-13T23:51:15.613Z,6.37
2017-08-13T23:53:41.633Z,6.90
2017-08-13T23:56:07.569Z,8.00
2017-08-13T23:58:34.273Z,6.33
